Time;durP1;ratioP1;P1;durP2;ratioP2;P2;SDS_P1;SDS_P2;PMS_P1;PMS_P2;Temp;Humidity;BMP_temperature;BMP_pressure;BME280_temperature;BME280_humidity;BME280_pressure;Samples;Min_cycle;Max_cycle;Signal;HPM_P1;HPM_P2
2021/08/02 00:00:12;;;;;;;3.25;1.40;;;14.40;99.90;;;;;;5111010;28;20054;-69
2021/08/02 00:02:50;;;;;;;4.35;1.40;;;14.40;99.90;;;;;;5110912;28;20035;-69
2021/08/02 00:05:24;;;;;;;3.60;1.30;;;14.40;99.90;;;;;;5111342;28;20481;-69
2021/08/02 00:07:57;;;;;;;1.67;0.95;;;14.40;99.90;;;;;;5108694;28;20058;-69
2021/08/02 00:10:29;;;;;;;5.85;1.77;;;14.40;99.90;;;;;;5108528;28;20040;-69
2021/08/02 00:12:59;;;;;;;;;;;14.40;99.90;;;;;;5098524;28;20511;-69
2021/08/02 00:15:24;;;;;;;3.83;1.55;;;14.40;99.90;;;;;;5111451;28;20251;-69
2021/08/02 00:17:50;;;;;;;3.47;1.23;;;14.40;99.90;;;;;;5109852;28;20043;-69
2021/08/02 00:20:23;;;;;;;4.72;1.15;;;14.40;99.90;;;;;;5109959;28;20549;-69
2021/08/02 00:22:50;;;;;;;1.75;1.20;;;14.40;99.90;;;;;;5108999;28;20430;-69
2021/08/02 00:25:16;;;;;;;1.73;1.23;;;14.40;99.90;;;;;;5101377;28;20068;-69
2021/08/02 00:27:42;;;;;;;3.47;1.50;;;14.40;99.90;;;;;;5094478;28;20084;-69
2021/08/02 00:30:09;;;;;;;3.00;1.15;;;14.40;99.90;;;;;;5111276;28;20043;-69
2021/08/02 00:32:35;;;;;;;3.03;1.60;;;14.40;99.90;;;;;;5110057;28;20178;-69
2021/08/02 00:35:03;;;;;;;3.28;1.58;;;14.40;99.90;;;;;;5091942;28;20046;-69
2021/08/02 00:38:06;;;;;;;5.88;1.75;;;14.40;99.90;;;;;;5109876;28;20039;-69
2021/08/02 00:40:49;;;;;;;4.82;1.63;;;14.40;99.90;;;;;;5109971;28;20044;-69
2021/08/02 00:43:34;;;;;;;8.32;2.05;;;14.40;99.90;;;;;;5097437;28;20043;-70
2021/08/02 00:46:00;;;;;;;3.70;1.40;;;14.40;99.90;;;;;;5109712;28;20146;-69
2021/08/02 00:48:29;;;;;;;4.60;1.60;;;14.30;99.90;;;;;;5109601;28;20052;-69
2021/08/02 00:51:00;;;;;;;2.70;1.30;;;14.30;99.90;;;;;;5110008;28;20481;-69
2021/08/02 00:53:27;;;;;;;6.07;1.77;;;14.30;99.90;;;;;;5110475;28;20047;-69
2021/08/02 00:55:56;;;;;;;4.30;1.63;;;14.40;99.90;;;;;;5109816;28;20124;-69
2021/08/02 00:58:23;;;;;;;5.68;1.42;;;14.40;99.90;;;;;;5089527;28;20050;-69
2021/08/02 01:00:51;;;;;;;3.42;1.45;;;14.30;99.90;;;;;;5109757;28;20043;-69
2021/08/02 01:03:18;;;;;;;3.08;1.40;;;14.40;99.90;;;;;;5091451;28;20054;-69
2021/08/02 01:05:47;;;;;;;6.50;1.77;;;14.30;99.90;;;;;;5107524;28;20039;-69
2021/08/02 01:08:30;;;;;;;4.82;1.60;;;14.30;99.90;;;;;;5108542;28;20040;-69
2021/08/02 01:11:01;;;;;;;3.10;1.50;;;14.40;99.90;;;;;;5108946;28;20063;-69
2021/08/02 01:13:29;;;;;;;4.97;1.70;;;14.40;99.90;;;;;;5110445;28;20544;-69
2021/08/02 01:16:00;;;;;;;5.10;1.70;;;14.30;99.90;;;;;;5089455;28;20388;-69
2021/08/02 01:18:26;;;;;;;4.43;1.77;;;14.30;99.90;;;;;;5091330;28;20071;-69
2021/08/02 01:20:53;;;;;;;6.40;1.70;;;14.30;99.90;;;;;;5108905;28;20046;-69
2021/08/02 01:23:21;;;;;;;3.28;1.63;;;14.30;99.90;;;;;;5110895;28;20547;-69
2021/08/02 01:25:54;;;;;;;3.58;1.40;;;14.30;99.90;;;;;;5113807;28;20040;-69
2021/08/02 01:28:20;;;;;;;3.00;1.70;;;14.30;99.90;;;;;;5087164;28;20036;-69
2021/08/02 01:30:55;;;;;;;4.45;1.50;;;14.30;99.90;;;;;;5106640;28;20504;-69
2021/08/02 01:33:29;;;;;;;4.45;1.80;;;14.30;99.90;;;;;;5112087;28;20039;-69
2021/08/02 01:36:00;;;;;;;4.40;2.30;;;14.30;99.90;;;;;;5113245;28;20039;-69
2021/08/02 01:38:28;;;;;;;4.80;1.75;;;14.30;99.90;;;;;;5114263;28;20540;-69
2021/08/02 01:40:54;;;;;;;6.90;1.75;;;14.30;99.90;;;;;;5111390;28;20473;-69
2021/08/02 01:43:21;;;;;;;5.70;1.90;;;14.30;99.90;;;;;;5094806;28;20109;-69
2021/08/02 01:46:01;;;;;;;3.63;1.73;;;14.30;99.90;;;;;;5109080;28;20031;-69
2021/08/02 01:48:47;;;;;;;6.70;1.70;;;14.30;99.90;;;;;;5112119;28;20036;-69
2021/08/02 01:51:22;;;;;;;4.18;1.67;;;14.30;99.90;;;;;;5080289;28;20413;-69
2021/08/02 01:53:54;;;;;;;4.25;1.83;;;14.30;99.90;;;;;;5110963;28;20047;-69
2021/08/02 01:56:35;;;;;;;5.43;2.13;;;14.30;99.90;;;;;;5111865;28;20039;-69
2021/08/02 01:59:17;;;;;;;6.07;1.92;;;14.20;99.90;;;;;;5112035;28;20047;-69
2021/08/02 02:01:49;;;;;;;4.65;1.90;;;14.20;99.90;;;;;;5113846;28;20036;-69
2021/08/02 02:04:17;;;;;;;3.92;2.08;;;14.20;99.90;;;;;;5098964;28;20044;-69
2021/08/02 02:06:47;;;;;;;6.20;2.03;;;14.10;99.90;;;;;;5104241;28;20483;-69
2021/08/02 02:09:16;;;;;;;5.57;1.98;;;14.10;99.90;;;;;;5112934;28;20043;-69
2021/08/02 02:11:45;;;;;;;5.43;2.25;;;14.10;99.90;;;;;;5094681;28;20040;-69
2021/08/02 02:14:12;;;;;;;6.65;2.80;;;14.10;99.90;;;;;;5108791;28;20035;-69
2021/08/02 02:16:44;;;;;;;4.78;2.00;;;14.10;99.90;;;;;;5093199;28;20424;-69
2021/08/02 02:19:11;;;;;;;5.50;2.00;;;14.10;99.90;;;;;;5104829;28;20144;-69
2021/08/02 02:21:39;;;;;;;4.25;1.70;;;14.10;99.90;;;;;;5112918;28;20472;-69
2021/08/02 02:24:05;;;;;;;6.03;2.42;;;14.10;99.90;;;;;;5112168;28;20032;-69
2021/08/02 02:26:33;;;;;;;4.53;1.80;;;14.10;99.90;;;;;;5106522;28;20114;-69
2021/08/02 02:29:05;;;;;;;4.22;2.05;;;14.10;99.90;;;;;;5102100;28;20329;-69
2021/08/02 02:31:34;;;;;;;5.72;2.10;;;14.10;99.90;;;;;;5105553;28;20036;-69
2021/08/02 02:34:01;;;;;;;3.50;1.60;;;14.10;99.90;;;;;;5112249;28;20058;-69
2021/08/02 02:36:29;;;;;;;4.82;1.80;;;14.10;99.90;;;;;;5103665;28;20093;-69
2021/08/02 02:38:54;;;;;;;5.93;2.15;;;14.20;99.90;;;;;;5109186;28;20040;-69
2021/08/02 02:41:22;;;;;;;6.00;1.60;;;14.20;99.90;;;;;;5094310;28;20112;-69
2021/08/02 02:43:49;;;;;;;6.25;1.73;;;14.20;99.90;;;;;;5094267;28;20043;-69
2021/08/02 02:46:17;;;;;;;5.40;1.90;;;14.20;99.90;;;;;;5096822;28;20035;-69
2021/08/02 02:48:45;;;;;;;6.53;1.67;;;14.20;99.90;;;;;;5111383;28;20071;-69
2021/08/02 02:51:11;;;;;;;6.00;1.70;;;14.20;99.90;;;;;;5112019;28;20114;-69
2021/08/02 02:53:41;;;;;;;4.35;1.52;;;14.20;99.90;;;;;;5113080;28;20039;-69
2021/08/02 02:56:09;;;;;;;4.82;1.88;;;14.20;99.90;;;;;;5111282;28;20333;-69
2021/08/02 02:58:36;;;;;;;3.67;1.75;;;14.20;99.90;;;;;;5112863;28;20036;-69
2021/08/02 03:01:03;;;;;;;3.88;1.70;;;14.20;99.90;;;;;;5112409;28;20043;-69
2021/08/02 03:03:36;;;;;;;6.68;1.98;;;14.30;99.90;;;;;;5111506;28;20039;-69
2021/08/02 03:06:04;;;;;;;3.10;1.73;;;14.20;99.90;;;;;;5108771;28;20468;-69
2021/08/02 03:08:32;;;;;;;7.38;2.10;;;14.20;99.90;;;;;;5112709;28;20039;-69
2021/08/02 03:10:58;;;;;;;5.22;2.22;;;14.20;99.90;;;;;;5112017;28;20461;-69
2021/08/02 03:13:26;;;;;;;11.27;2.50;;;14.20;99.90;;;;;;5111325;28;20039;-69
2021/08/02 03:15:52;;;;;;;5.90;2.63;;;14.20;99.90;;;;;;5111328;28;20036;-69
2021/08/02 03:18:17;;;;;;;6.88;2.10;;;14.20;99.90;;;;;;5091511;28;20101;-69
2021/08/02 03:20:43;;;;;;;5.70;2.03;;;14.10;99.90;;;;;;5112333;28;20035;-69
2021/08/02 03:23:12;;;;;;;4.40;1.70;;;14.20;99.90;;;;;;5112283;28;20039;-69
2021/08/02 03:25:47;;;;;;;7.07;1.77;;;14.20;99.90;;;;;;5092328;28;20043;-69
2021/08/02 03:28:30;;;;;;;5.05;2.03;;;14.20;99.90;;;;;;5111325;28;20040;-69
2021/08/02 03:30:59;;;;;;;4.88;1.65;;;14.20;99.90;;;;;;5097938;28;20035;-69
2021/08/02 03:33:30;;;;;;;4.82;1.92;;;14.20;99.90;;;;;;5111224;28;20130;-69
2021/08/02 03:35:58;;;;;;;3.37;1.63;;;14.10;99.90;;;;;;5110607;28;20035;-69
2021/08/02 03:38:26;;;;;;;6.65;2.60;;;14.10;99.90;;;;;;5111390;28;20046;-69
2021/08/02 03:40:53;;;;;;;5.32;1.95;;;14.10;99.90;;;;;;5110110;28;20118;-69
2021/08/02 03:43:20;;;;;;;4.78;2.28;;;14.10;99.90;;;;;;5112144;28;20032;-69
2021/08/02 03:45:46;;;;;;;5.47;2.22;;;14.10;99.90;;;;;;5091395;28;20378;-69
2021/08/02 03:48:12;;;;;;;5.53;1.85;;;14.00;99.90;;;;;;5111993;28;20093;-69
2021/08/02 03:50:38;;;;;;;5.57;1.95;;;14.10;99.90;;;;;;5110537;28;20031;-69
2021/08/02 03:53:04;;;;;;;8.32;2.17;;;14.00;99.90;;;;;;5109184;28;20480;-69
2021/08/02 03:55:35;;;;;;;4.80;1.88;;;14.10;99.90;;;;;;5108862;28;20454;-69
2021/08/02 03:58:01;;;;;;;2.72;1.70;;;14.10;99.90;;;;;;5103060;28;20067;-69
2021/08/02 04:00:27;;;;;;;3.20;1.77;;;14.00;99.90;;;;;;5103423;28;20067;-69
2021/08/02 04:02:53;;;;;;;3.95;1.60;;;14.10;99.90;;;;;;5110367;28;20073;-70
2021/08/02 04:05:19;;;;;;;7.07;2.88;;;14.10;99.90;;;;;;5110611;28;20042;-69
2021/08/02 04:07:45;;;;;;;5.35;1.65;;;14.10;99.90;;;;;;5109659;28;20484;-69
2021/08/02 04:10:12;;;;;;;5.45;1.80;;;14.10;99.90;;;;;;5091424;28;20028;-69
2021/08/02 04:12:38;;;;;;;4.38;1.80;;;14.10;99.90;;;;;;5109463;28;20465;-69
2021/08/02 04:15:06;;;;;;;4.70;1.92;;;14.10;99.90;;;;;;5097805;28;20544;-69
2021/08/02 04:17:32;;;;;;;5.13;1.95;;;14.10;99.90;;;;;;5103686;28;20044;-69
2021/08/02 04:19:57;;;;;;;7.00;2.20;;;14.10;99.90;;;;;;5111466;28;20118;-69
2021/08/02 04:22:28;;;;;;;4.68;1.80;;;14.10;99.90;;;;;;5107471;28;20035;-69
2021/08/02 04:24:53;;;;;;;6.85;2.13;;;14.10;99.90;;;;;;5110268;28;20036;-69
2021/08/02 04:27:19;;;;;;;5.10;1.70;;;14.10;99.90;;;;;;5108296;28;20084;-69
2021/08/02 04:29:45;;;;;;;6.95;2.03;;;14.10;99.90;;;;;;5110094;28;20043;-69
2021/08/02 04:32:11;;;;;;;3.13;1.90;;;14.10;99.90;;;;;;5111435;28;20072;-69
2021/08/02 04:34:37;;;;;;;5.45;2.13;;;14.10;99.90;;;;;;5109426;28;20043;-69
2021/08/02 04:37:04;;;;;;;8.75;2.33;;;14.10;99.90;;;;;;5109112;28;20040;-69
2021/08/02 04:39:30;;;;;;;5.03;2.30;;;14.10;99.90;;;;;;5107928;28;20027;-69
2021/08/02 04:41:55;;;;;;;1.55;1.45;;;14.20;99.90;;;;;;5110767;28;20412;-69
2021/08/02 04:44:23;;;;;;;5.95;2.08;;;14.20;99.90;;;;;;5110054;28;20031;-69
2021/08/02 04:46:49;;;;;;;3.08;1.92;;;14.20;99.90;;;;;;5110568;28;20074;-69
2021/08/02 04:49:15;;;;;;;5.38;2.08;;;14.10;99.90;;;;;;5109984;28;20568;-69
2021/08/02 04:51:41;;;;;;;3.72;1.75;;;14.10;99.90;;;;;;5108645;28;20119;-69
2021/08/02 04:54:06;;;;;;;4.25;1.80;;;14.10;99.90;;;;;;5109624;28;20036;-69
2021/08/02 04:56:32;;;;;;;5.38;1.92;;;14.10;99.90;;;;;;5110468;28;20028;-69
2021/08/02 04:58:58;;;;;;;5.25;1.60;;;14.10;99.90;;;;;;5108815;28;20067;-69
2021/08/02 05:01:23;;;;;;;4.07;1.50;;;14.00;99.90;;;;;;5092338;28;20469;-70
2021/08/02 05:03:49;;;;;;;4.15;1.85;;;13.90;99.90;;;;;;5091385;28;20046;-69
2021/08/02 05:06:15;;;;;;;7.50;2.05;;;13.90;99.90;;;;;;5109066;28;20049;-69
2021/08/02 05:08:41;;;;;;;4.57;1.70;;;13.90;99.90;;;;;;5109262;28;20404;-69
2021/08/02 05:11:06;;;;;;;4.78;1.92;;;13.90;99.90;;;;;;5108819;28;20028;-69
2021/08/02 05:13:34;;;;;;;4.50;1.65;;;13.90;99.90;;;;;;5091053;28;20427;-69
2021/08/02 05:16:00;;;;;;;3.83;1.40;;;14.00;99.90;;;;;;5110251;28;20031;-69
2021/08/02 05:18:26;;;;;;;4.15;1.73;;;14.00;99.90;;;;;;5109072;28;20082;-69
2021/08/02 05:20:52;;;;;;;8.57;1.92;;;14.10;99.90;;;;;;5109294;28;20047;-69
2021/08/02 05:23:17;;;;;;;4.72;1.85;;;14.10;99.90;;;;;;5109515;28;20120;-69
2021/08/02 05:25:43;;;;;;;6.30;1.52;;;14.20;99.90;;;;;;5089907;28;20042;-70
2021/08/02 05:28:09;;;;;;;3.35;1.83;;;14.20;99.90;;;;;;5108100;28;20492;-70
2021/08/02 05:30:34;;;;;;;5.90;1.70;;;14.20;99.90;;;;;;5108452;28;20032;-69
2021/08/02 05:33:03;;;;;;;9.10;2.05;;;14.30;99.90;;;;;;5108678;28;20038;-69
2021/08/02 05:35:28;;;;;;;4.05;1.52;;;14.30;99.90;;;;;;5110204;28;20455;-69
2021/08/02 05:37:54;;;;;;;3.60;1.58;;;14.40;99.90;;;;;;5091053;28;20040;-69
2021/08/02 05:40:20;;;;;;;6.60;1.80;;;14.50;99.90;;;;;;5110058;28;20036;-69
2021/08/02 05:42:46;;;;;;;4.93;1.52;;;14.60;99.90;;;;;;5109236;28;20046;-69
2021/08/02 05:45:13;;;;;;;4.70;2.00;;;14.60;99.90;;;;;;5108765;28;20039;-68
2021/08/02 05:47:40;;;;;;;3.90;1.70;;;14.70;99.90;;;;;;5096665;28;20040;-69
2021/08/02 05:50:06;;;;;;;5.05;1.48;;;14.70;99.90;;;;;;5083684;28;20043;-69
2021/08/02 05:52:32;;;;;;;5.72;1.77;;;14.80;99.90;;;;;;5110307;28;20027;-69
2021/08/02 05:54:58;;;;;;;6.90;1.75;;;14.90;99.90;;;;;;5109172;28;20036;-69
2021/08/02 05:57:24;;;;;;;5.20;1.70;;;15.00;99.90;;;;;;5089936;28;20107;-68
2021/08/02 05:59:50;;;;;;;8.98;1.45;;;15.50;99.90;;;;;;5090632;28;20525;-69
2021/08/02 06:02:17;;;;;;;5.68;1.73;;;17.00;99.90;;;;;;5090537;28;20036;-69
2021/08/02 06:04:43;;;;;;;4.57;1.50;;;18.60;99.90;;;;;;5108572;28;20088;-69
2021/08/02 06:07:08;;;;;;;3.05;1.27;;;20.00;99.90;;;;;;5106061;28;20706;-69
2021/08/02 06:09:36;;;;;;;3.75;1.35;;;21.20;99.90;;;;;;5107731;28;20035;-70
2021/08/02 06:12:21;;;;;;;5.50;1.50;;;22.30;98.60;;;;;;5100717;28;20123;-70
2021/08/02 06:14:47;;;;;;;5.03;1.33;;;23.50;97.50;;;;;;5113889;28;20036;-70
2021/08/02 06:17:13;;;;;;;4.72;1.63;;;24.20;95.50;;;;;;5113245;28;20059;-70
2021/08/02 06:19:43;;;;;;;4.25;1.35;;;24.90;94.50;;;;;;5113113;28;20035;-70
2021/08/02 06:22:09;;;;;;;4.30;1.38;;;25.40;91.30;;;;;;5113354;28;20043;-70
2021/08/02 06:24:34;;;;;;;4.28;1.05;;;25.90;90.10;;;;;;5113224;28;20484;-76
2021/08/02 06:27:00;;;;;;;6.07;1.77;;;26.50;90.30;;;;;;5094559;28;20495;-70
2021/08/02 06:29:26;;;;;;;4.65;1.40;;;27.10;87.70;;;;;;5112240;28;20047;-70
2021/08/02 06:31:52;;;;;;;4.60;1.00;;;27.00;82.60;;;;;;5113366;28;20557;-70
2021/08/02 06:34:17;;;;;;;4.18;1.17;;;26.00;82.90;;;;;;5113179;28;20043;-70
2021/08/02 06:36:43;;;;;;;4.40;1.15;;;24.80;83.20;;;;;;5111692;28;20088;-70
2021/08/02 06:39:08;;;;;;;3.60;1.33;;;24.10;89.30;;;;;;5112261;28;20063;-68
2021/08/02 06:41:34;;;;;;;3.90;0.93;;;23.40;90.90;;;;;;5110561;28;20032;-70
2021/08/02 06:43:59;;;;;;;3.75;1.10;;;22.90;91.90;;;;;;5111911;28;20113;-70
2021/08/02 06:46:25;;;;;;;3.83;1.08;;;22.70;93.10;;;;;;5106501;28;20045;-70
2021/08/02 06:48:51;;;;;;;5.65;1.40;;;23.30;93.00;;;;;;5109627;28;20059;-69
2021/08/02 06:51:19;;;;;;;3.50;1.13;;;24.40;91.10;;;;;;5110167;28;20071;-68
2021/08/02 06:53:44;;;;;;;4.30;1.02;;;25.20;88.20;;;;;;5109371;28;20704;-70
2021/08/02 06:56:10;;;;;;;6.55;1.10;;;25.60;86.50;;;;;;5106294;28;20090;-69
2021/08/02 06:58:36;;;;;;;5.03;1.00;;;26.30;85.00;;;;;;5106831;28;20044;-69
2021/08/02 07:01:01;;;;;;;3.22;0.80;;;26.90;81.40;;;;;;5112021;27;20042;-70
2021/08/02 07:03:27;;;;;;;3.38;1.08;;;27.40;77.10;;;;;;5109501;28;20081;-69
2021/08/02 07:05:53;;;;;;;3.22;0.90;;;27.60;76.20;;;;;;5077189;28;20032;-69
2021/08/02 07:08:19;;;;;;;4.55;1.15;;;27.30;74.60;;;;;;5101454;28;20485;-69
2021/08/02 07:10:46;;;;;;;3.60;1.00;;;26.50;76.30;;;;;;5085595;28;20024;-70
2021/08/02 07:13:11;;;;;;;5.00;1.10;;;25.20;78.70;;;;;;5104450;28;20027;-70
2021/08/02 07:15:37;;;;;;;3.92;1.10;;;24.10;82.40;;;;;;5082690;28;20035;-70
2021/08/02 07:18:02;;;;;;;6.35;1.33;;;23.50;87.80;;;;;;5104673;28;20043;-69
2021/08/02 07:20:28;;;;;;;3.15;1.15;;;22.80;90.30;;;;;;5103229;28;20420;-71
2021/08/02 07:22:54;;;;;;;5.85;1.35;;;22.20;91.00;;;;;;5110618;28;20492;-70
2021/08/02 07:25:19;;;;;;;2.38;0.90;;;21.70;93.50;;;;;;5105578;28;20397;-70
2021/08/02 07:27:45;;;;;;;4.60;0.90;;;21.30;94.10;;;;;;5102888;28;20126;-70
2021/08/02 07:30:11;;;;;;;3.85;0.95;;;21.20;95.10;;;;;;5104918;28;20548;-70
2021/08/02 07:32:37;;;;;;;3.50;0.90;;;21.50;95.30;;;;;;5107070;28;20043;-70
2021/08/02 07:35:04;;;;;;;5.00;1.35;;;21.80;95.00;;;;;;5104201;28;20035;-70
2021/08/02 07:37:29;;;;;;;4.78;1.00;;;21.90;94.40;;;;;;5100543;27;20039;-70
2021/08/02 07:39:55;;;;;;;3.25;0.95;;;21.80;94.20;;;;;;5111040;28;20040;-71
2021/08/02 07:42:20;;;;;;;2.85;0.90;;;21.80;94.30;;;;;;5112176;28;20118;-71
2021/08/02 07:44:46;;;;;;;5.28;1.27;;;21.30;93.00;;;;;;5093258;28;20395;-70
2021/08/02 07:47:12;;;;;;;3.30;1.00;;;22.10;93.90;;;;;;5111860;28;20100;-71
2021/08/02 07:49:38;;;;;;;5.80;1.08;;;22.30;93.70;;;;;;5110778;28;20040;-71
2021/08/02 07:52:04;;;;;;;2.70;0.80;;;22.50;92.50;;;;;;5111608;28;20046;-71
2021/08/02 07:54:30;;;;;;;1.55;0.70;;;21.90;93.00;;;;;;5111988;28;20051;-71
2021/08/02 07:56:55;;;;;;;3.67;0.95;;;21.20;94.70;;;;;;5092948;28;20039;-71
2021/08/02 07:59:21;;;;;;;4.95;1.30;;;20.60;95.80;;;;;;5109370;28;20396;-71
2021/08/02 08:01:46;;;;;;;3.80;1.25;;;20.40;97.00;;;;;;5116785;27;20108;-71
2021/08/02 08:04:12;;;;;;;4.32;1.13;;;20.10;97.70;;;;;;5110232;28;20043;-66
2021/08/02 08:06:38;;;;;;;5.93;1.17;;;20.00;98.00;;;;;;5091869;28;20063;-66
2021/08/02 08:09:03;;;;;;;3.10;1.08;;;19.90;98.70;;;;;;5108528;28;20034;-66
2021/08/02 08:11:29;;;;;;;3.25;1.00;;;19.90;98.60;;;;;;5107532;28;20067;-66
2021/08/02 08:13:55;;;;;;;3.05;1.00;;;20.00;98.50;;;;;;5100662;28;20119;-66
2021/08/02 08:16:20;;;;;;;6.00;1.30;;;20.00;98.60;;;;;;5102858;28;20035;-66
2021/08/02 08:18:47;;;;;;;4.43;0.90;;;20.00;98.30;;;;;;5104959;28;20048;-66
2021/08/02 08:21:13;;;;;;;3.15;0.80;;;20.20;97.90;;;;;;5099647;28;20031;-66
2021/08/02 08:23:38;;;;;;;5.32;1.08;;;20.30;97.90;;;;;;5102406;28;20046;-66
2021/08/02 08:26:04;;;;;;;3.17;0.80;;;20.30;97.70;;;;;;5100069;28;20032;-66
2021/08/02 08:28:29;;;;;;;2.45;1.02;;;20.40;97.40;;;;;;5101161;28;20073;-66
2021/08/02 08:30:56;;;;;;;4.50;1.15;;;20.40;97.00;;;;;;5099075;28;20040;-66
2021/08/02 08:33:26;;;;;;;2.95;1.27;;;20.40;97.50;;;;;;5109792;28;20110;-66
2021/08/02 08:35:53;;;;;;;5.45;0.95;;;20.20;96.40;;;;;;5110828;28;20036;-66
2021/08/02 08:38:18;;;;;;;4.75;0.90;;;20.30;97.40;;;;;;5110451;28;20468;-66
2021/08/02 08:40:46;;;;;;;2.75;0.85;;;20.40;97.50;;;;;;5108905;28;20130;-66
2021/08/02 08:43:17;;;;;;;3.70;0.93;;;20.40;97.30;;;;;;5110980;28;20308;-66
2021/08/02 08:45:43;;;;;;;2.53;0.80;;;20.50;96.60;;;;;;5090654;28;20044;-65
2021/08/02 08:48:08;;;;;;;3.88;1.15;;;20.50;96.90;;;;;;5099139;28;20085;-66
2021/08/02 08:50:38;;;;;;;3.15;0.90;;;20.40;96.80;;;;;;5098757;28;20100;-65
2021/08/02 08:53:04;;;;;;;3.85;1.15;;;20.50;96.50;;;;;;5109415;28;20492;-65
2021/08/02 08:55:30;;;;;;;4.88;1.02;;;20.70;96.80;;;;;;5109785;28;20036;-65
2021/08/02 08:57:59;;;;;;;4.75;1.08;;;20.90;96.30;;;;;;5110576;28;20075;-66
2021/08/02 09:00:27;;;;;;;3.42;1.02;;;21.00;96.00;;;;;;5110856;28;20046;-65
2021/08/02 09:02:54;;;;;;;1.83;0.80;;;21.30;95.80;;;;;;5119324;27;20062;-65
2021/08/02 09:05:20;;;;;;;2.50;0.82;;;21.40;95.70;;;;;;5110655;28;20543;-65
2021/08/02 09:07:47;;;;;;;2.80;1.00;;;21.60;95.30;;;;;;5109381;28;20043;-66
2021/08/02 09:10:16;;;;;;;2.83;0.98;;;21.70;94.90;;;;;;5110661;28;20063;-65
2021/08/02 09:13:00;;;;;;;4.07;1.17;;;21.70;94.60;;;;;;5110204;28;20439;-66
2021/08/02 09:15:45;;;;;;;3.13;0.93;;;21.70;93.80;;;;;;5110597;28;20035;-66
2021/08/02 09:18:21;;;;;;;3.20;0.98;;;21.60;93.20;;;;;;5098460;28;20114;-66
2021/08/02 09:20:57;;;;;;;5.88;0.95;;;21.50;93.70;;;;;;5109823;28;20051;-65
2021/08/02 09:23:23;;;;;;;3.92;0.80;;;21.40;94.40;;;;;;5110511;28;20376;-66
2021/08/02 09:25:54;;;;;;;3.38;1.00;;;21.40;95.20;;;;;;5109897;28;20043;-66
2021/08/02 09:28:22;;;;;;;3.85;1.08;;;21.60;95.40;;;;;;5107379;28;20043;-66
2021/08/02 09:31:03;;;;;;;2.45;1.10;;;21.90;95.70;;;;;;5109724;28;20031;-66
2021/08/02 09:33:46;;;;;;;3.55;0.90;;;22.20;94.70;;;;;;5109998;28;20103;-65
2021/08/02 09:36:12;;;;;;;5.13;1.08;;;22.30;94.00;;;;;;5110304;28;20385;-65
2021/08/02 09:38:38;;;;;;;4.93;1.00;;;22.20;94.20;;;;;;5110013;28;20039;-66
2021/08/02 09:41:03;;;;;;;2.90;0.98;;;22.00;93.50;;;;;;5109412;28;20084;-66
2021/08/02 09:43:31;;;;;;;2.63;0.85;;;21.70;92.90;;;;;;5109392;28;20496;-66
2021/08/02 09:46:01;;;;;;;2.97;1.00;;;21.20;94.10;;;;;;5114147;28;20040;-66
2021/08/02 09:48:40;;;;;;;3.40;0.98;;;20.90;95.50;;;;;;5112500;28;20050;-66
2021/08/02 09:51:09;;;;;;;1.67;0.68;;;20.50;96.70;;;;;;5114084;28;20073;-66
2021/08/02 09:53:46;;;;;;;3.15;1.05;;;20.10;98.10;;;;;;5114082;28;20134;-66
2021/08/02 09:56:13;;;;;;;3.45;1.00;;;19.70;99.00;;;;;;5118854;27;20031;-66
2021/08/02 09:58:43;;;;;;;4.45;1.08;;;19.50;99.80;;;;;;5115972;27;20499;-66
2021/08/02 10:01:14;;;;;;;3.58;0.90;;;19.40;99.90;;;;;;5113509;28;20504;-66
2021/08/02 10:03:40;;;;;;;4.18;1.40;;;19.40;99.90;;;;;;5121769;27;20045;-66
2021/08/02 10:06:06;;;;;;;1.58;0.88;;;19.40;99.90;;;;;;5113531;28;20036;-66
2021/08/02 10:08:36;;;;;;;2.95;0.95;;;19.40;99.90;;;;;;5113523;28;20134;-66
2021/08/02 10:11:03;;;;;;;3.20;0.70;;;19.30;99.90;;;;;;5113707;28;20044;-66
2021/08/02 10:13:31;;;;;;;3.85;1.08;;;19.40;99.90;;;;;;5112826;28;20102;-66
2021/08/02 10:16:00;;;;;;;3.65;1.10;;;19.50;99.90;;;;;;5112890;28;20039;-66
2021/08/02 10:18:29;;;;;;;2.25;0.70;;;19.70;99.90;;;;;;5112362;28;20063;-66
2021/08/02 10:21:07;;;;;;;2.13;0.93;;;19.80;99.50;;;;;;5111131;28;20071;-66
2021/08/02 10:23:33;;;;;;;4.00;0.90;;;19.90;99.50;;;;;;5112472;28;20034;-66
2021/08/02 10:25:59;;;;;;;4.90;1.00;;;20.00;99.30;;;;;;5112814;28;20514;-66
2021/08/02 10:28:25;;;;;;;3.90;1.10;;;20.10;99.40;;;;;;5107965;28;20145;-66
2021/08/02 10:33:36;;;;;;;4.75;0.90;;;20.10;99.00;;;;;;5130856;27;20047;-72
2021/08/02 10:36:19;;;;;;;2.45;0.77;;;20.10;98.90;;;;;;5114635;27;20035;-72
2021/08/02 10:38:48;;;;;;;4.18;0.90;;;20.20;99.20;;;;;;5132207;27;20112;-72
2021/08/02 10:41:33;;;;;;;2.72;0.90;;;20.30;98.90;;;;;;5132340;27;20091;-72
2021/08/02 10:44:15;;;;;;;3.72;1.05;;;20.60;97.60;;;;;;5128225;27;20031;-72
2021/08/02 10:46:41;;;;;;;3.17;0.60;;;20.70;98.10;;;;;;5129106;27;20030;-72
2021/08/02 10:49:09;;;;;;;2.70;0.65;;;21.00;97.80;;;;;;5125924;27;20488;-72
2021/08/02 10:51:49;;;;;;;2.53;0.90;;;21.20;97.50;;;;;;5127203;27;20039;-72
2021/08/02 10:54:15;;;;;;;2.60;0.80;;;21.30;97.00;;;;;;5127437;27;20035;-72
2021/08/02 10:56:41;;;;;;;2.72;0.95;;;21.40;96.20;;;;;;5106442;27;20035;-71
2021/08/02 10:59:07;;;;;;;3.17;0.88;;;21.60;95.80;;;;;;5128595;27;20039;-72
2021/08/02 11:01:36;;;;;;;4.50;1.00;;;21.80;96.00;;;;;;5129308;27;20038;-72
2021/08/02 11:04:11;;;;;;;3.85;0.85;;;21.70;94.90;;;;;;5122080;27;20442;-72
2021/08/02 11:06:37;;;;;;;3.53;0.90;;;21.50;95.30;;;;;;5130991;27;20046;-72
2021/08/02 11:09:02;;;;;;;5.20;0.93;;;21.20;94.60;;;;;;5132036;27;20103;-72
2021/08/02 11:11:37;;;;;;;3.00;0.80;;;20.80;96.10;;;;;;5123410;27;20145;-71
2021/08/02 11:14:21;;;;;;;1.90;0.80;;;20.30;96.20;;;;;;5129487;27;20046;-70
2021/08/02 11:16:49;;;;;;;3.75;0.93;;;20.10;96.80;;;;;;5129997;27;20027;-71
2021/08/02 11:19:28;;;;;;;3.90;0.70;;;19.40;97.30;;;;;;5115064;27;20098;-72
2021/08/02 11:22:00;;;;;;;1.67;0.50;;;19.50;97.80;;;;;;5128885;27;20047;-72
2021/08/02 11:24:38;;;;;;;2.72;0.55;;;19.30;97.90;;;;;;5133228;27;20027;-72
2021/08/02 11:27:12;;;;;;;3.33;0.85;;;19.20;98.80;;;;;;5129066;27;20039;-72
2021/08/02 11:29:38;;;;;;;4.10;0.82;;;19.10;99.40;;;;;;5119692;27;20035;-72
2021/08/02 11:32:10;;;;;;;2.25;0.57;;;18.90;99.60;;;;;;5124417;27;20039;-72
2021/08/02 11:34:40;;;;;;;3.47;0.80;;;18.90;99.90;;;;;;5119768;27;20070;-72
2021/08/02 11:37:14;;;;;;;2.22;0.63;;;18.80;99.90;;;;;;5129364;27;20042;-72
2021/08/02 11:39:46;;;;;;;2.55;0.80;;;18.90;99.90;;;;;;5116083;27;20047;-72
2021/08/02 11:42:14;;;;;;;1.60;0.60;;;19.10;99.90;;;;;;5123755;27;20035;-66
2021/08/02 11:44:51;;;;;;;2.30;0.77;;;19.20;99.90;;;;;;5132461;27;20035;-66
2021/08/02 11:47:19;;;;;;;1.52;0.85;;;19.50;99.90;;;;;;5130465;27;20144;-67
2021/08/02 11:49:46;;;;;;;3.03;1.10;;;19.70;99.90;;;;;;5128487;27;20107;-68
2021/08/02 11:52:20;;;;;;;3.60;1.33;;;19.80;99.90;;;;;;5129894;27;20437;-68
2021/08/02 11:54:57;;;;;;;2.83;1.00;;;20.20;99.90;;;;;;5130649;27;20035;-65
2021/08/02 11:57:22;;;;;;;3.35;0.80;;;20.50;98.50;;;;;;5132565;27;20077;-65
2021/08/02 12:00:11;;;;;;;2.33;0.90;;;20.50;98.60;;;;;;5130888;27;20655;-68
2021/08/02 12:02:39;;;;;;;2.10;0.70;;;20.70;98.40;;;;;;5131435;27;20124;-68
2021/08/02 12:05:07;;;;;;;4.30;1.10;;;20.80;98.00;;;;;;5111979;27;20513;-68
2021/08/02 12:07:33;;;;;;;3.88;0.90;;;20.90;97.90;;;;;;5130472;27;20120;-68
2021/08/02 12:10:15;;;;;;;3.58;0.80;;;20.90;97.80;;;;;;5125530;27;20027;-68
2021/08/02 12:13:02;;;;;;;4.20;0.70;;;20.90;97.10;;;;;;5127452;27;20031;-68
2021/08/02 12:15:29;;;;;;;2.55;1.15;;;20.80;98.00;;;;;;5130240;27;20054;-65
2021/08/02 12:17:56;;;;;;;2.40;0.98;;;20.80;98.00;;;;;;5131034;27;20050;-66
2021/08/02 12:20:28;;;;;;;3.20;0.80;;;20.60;98.20;;;;;;5131514;27;20541;-65
2021/08/02 12:22:54;;;;;;;2.95;0.80;;;20.50;97.70;;;;;;5131879;27;20103;-66
2021/08/02 12:25:19;;;;;;;2.33;0.80;;;20.40;98.30;;;;;;5122925;27;21957;-66
2021/08/02 12:27:45;;;;;;;3.67;0.80;;;20.30;98.60;;;;;;5127043;27;20065;-66
2021/08/02 12:30:13;;;;;;;3.28;0.80;;;20.10;98.40;;;;;;5124460;27;20118;-66
2021/08/02 12:32:48;;;;;;;2.05;0.80;;;20.10;98.80;;;;;;5122041;27;20055;-66
2021/08/02 12:35:15;;;;;;;1.40;0.70;;;20.10;98.70;;;;;;5128314;27;20050;-66
2021/08/02 12:37:44;;;;;;;2.75;0.88;;;20.20;99.00;;;;;;5131382;27;20051;-66
2021/08/02 12:40:15;;;;;;;1.52;0.68;;;20.20;98.70;;;;;;5131317;27;20095;-66
2021/08/02 12:42:43;;;;;;;4.07;0.85;;;20.20;99.00;;;;;;5131566;27;20484;-66
2021/08/02 12:45:10;;;;;;;3.75;0.98;;;20.30;98.40;;;;;;5102183;28;20446;-66
2021/08/02 12:47:36;;;;;;;2.53;0.70;;;20.40;98.80;;;;;;5120335;27;20501;-66
2021/08/02 12:50:03;;;;;;;1.83;0.70;;;20.50;98.60;;;;;;5129259;27;20046;-66
2021/08/02 12:52:31;;;;;;;4.90;1.13;;;20.60;98.70;;;;;;5127873;27;20039;-66
2021/08/02 12:54:59;;;;;;;1.48;0.70;;;20.80;98.60;;;;;;5129036;27;20114;-66
2021/08/02 12:57:26;;;;;;;1.65;0.60;;;20.90;97.80;;;;;;5129233;27;20472;-66